Time;durP1;ratioP1;P1;durP2;ratioP2;P2;SDS_P1;SDS_P2;PMS_P1;PMS_P2;Temp;Humidity;BMP_temperature;BMP_pressure;BME280_temperature;BME280_humidity;BME280_pressure;Samples;Min_cycle;Max_cycle;Signal;HPM_P1;HPM_P2
2021/06/30 00:00:34;;;;;;;26.85;19.30;;;;;;;;;;2069696;28;20653;-53
2021/06/30 00:01:35;;;;;;;29.40;20.10;;;;;;;;;;2070442;28;20165;-50
2021/06/30 00:02:35;;;;;;;28.17;19.35;;;;;;;;;;2065790;28;20177;-53
2021/06/30 00:03:35;;;;;;;27.40;19.55;;;;;;;;;;2068866;28;20192;-54
2021/06/30 00:04:35;;;;;;;31.98;19.10;;;;;;;;;;2064775;28;20181;-52
2021/06/30 00:05:36;;;;;;;30.20;21.30;;;;;;;;;;2061643;28;20666;-51
2021/06/30 00:06:36;;;;;;;25.23;18.17;;;;;;;;;;2066773;28;20204;-56
2021/06/30 00:07:36;;;;;;;27.88;19.80;;;;;;;;;;2068286;28;20623;-55
2021/06/30 00:08:37;;;;;;;27.50;19.20;;;;;;;;;;2065980;28;20669;-52
2021/06/30 00:09:38;;;;;;;30.95;20.42;;;;;;;;;;2063974;28;20733;-58
2021/06/30 00:10:41;;;;;;;30.52;21.45;;;;;;;;;;2062774;28;20181;-52
2021/06/30 00:11:41;;;;;;;31.83;20.92;;;;;;;;;;2072131;28;20179;-53
2021/06/30 00:12:41;;;;;;;27.77;20.55;;;;;;;;;;2058411;28;20689;-52
2021/06/30 00:13:42;;;;;;;27.60;20.65;;;;;;;;;;2071269;28;20255;-59
2021/06/30 00:14:42;;;;;;;33.90;21.52;;;;;;;;;;2063219;28;20321;-55
2021/06/30 00:15:44;;;;;;;28.83;19.95;;;;;;;;;;2073477;28;20200;-51
2021/06/30 00:16:46;;;;;;;31.55;21.00;;;;;;;;;;2063952;28;20217;-55
2021/06/30 00:17:46;;;;;;;28.08;21.27;;;;;;;;;;2073567;28;20192;-54
2021/06/30 00:18:47;;;;;;;33.85;22.55;;;;;;;;;;2066160;28;20650;-56
2021/06/30 00:19:47;;;;;;;31.25;21.95;;;;;;;;;;2064385;28;20190;-54
2021/06/30 00:20:47;;;;;;;32.17;22.05;;;;;;;;;;2073605;28;20165;-58
2021/06/30 00:21:48;;;;;;;30.88;20.90;;;;;;;;;;2065884;28;20533;-58
2021/06/30 00:22:48;;;;;;;29.92;20.00;;;;;;;;;;2072855;28;20181;-58
2021/06/30 00:23:48;;;;;;;28.10;20.90;;;;;;;;;;2072622;28;20200;-57
2021/06/30 00:24:49;;;;;;;29.15;20.02;;;;;;;;;;2064988;28;20182;-57
2021/06/30 00:25:49;;;;;;;27.77;20.67;;;;;;;;;;2073213;28;20179;-56
2021/06/30 00:26:49;;;;;;;34.95;21.77;;;;;;;;;;2063503;28;20246;-56
2021/06/30 00:27:50;;;;;;;28.67;21.50;;;;;;;;;;2070187;28;20174;-55
2021/06/30 00:28:50;;;;;;;28.75;20.98;;;;;;;;;;2065755;28;20200;-56
2021/06/30 00:29:50;;;;;;;26.77;20.65;;;;;;;;;;2065981;28;20182;-53
2021/06/30 00:30:51;;;;;;;31.58;22.42;;;;;;;;;;2065332;28;20193;-53
2021/06/30 00:31:51;;;;;;;37.50;22.63;;;;;;;;;;2066478;28;20197;-52
2021/06/30 00:32:51;;;;;;;29.67;21.33;;;;;;;;;;2066753;28;20603;-51
2021/06/30 00:33:52;;;;;;;30.67;20.60;;;;;;;;;;2066325;28;20318;-53
2021/06/30 00:34:52;;;;;;;29.52;21.10;;;;;;;;;;2060756;28;20177;-57
2021/06/30 00:35:52;;;;;;;29.85;20.95;;;;;;;;;;2066330;28;20264;-55
2021/06/30 00:36:52;;;;;;;29.27;20.20;;;;;;;;;;2059652;28;20618;-55
2021/06/30 00:37:53;;;;;;;32.25;22.23;;;;;;;;;;2057637;28;20305;-51
2021/06/30 00:38:53;;;;;;;33.95;21.60;;;;;;;;;;2064926;28;20208;-53
2021/06/30 00:39:53;;;;;;;30.83;21.90;;;;;;;;;;2065615;28;20242;-51
2021/06/30 00:40:53;;;;;;;31.27;22.42;;;;;;;;;;2073136;28;20672;-54
2021/06/30 00:41:57;;;;;;;32.33;21.95;;;;;;;;;;2066632;28;20251;-54
2021/06/30 00:42:57;;;;;;;31.15;22.02;;;;;;;;;;2071695;28;20248;-52
2021/06/30 00:43:57;;;;;;;32.28;22.27;;;;;;;;;;2062094;28;20651;-52
2021/06/30 00:44:58;;;;;;;36.83;23.55;;;;;;;;;;2067721;28;20221;-55
2021/06/30 00:45:58;;;;;;;31.20;21.65;;;;;;;;;;2068534;28;20181;-56
2021/06/30 00:46:58;;;;;;;35.10;23.08;;;;;;;;;;2072750;28;20626;-53
2021/06/30 00:47:59;;;;;;;36.38;23.65;;;;;;;;;;2066790;28;20209;-56
2021/06/30 00:48:59;;;;;;;31.30;21.90;;;;;;;;;;2068532;28;20217;-52
2021/06/30 00:50:00;;;;;;;35.13;21.63;;;;;;;;;;2064418;28;20169;-51
2021/06/30 00:51:00;;;;;;;31.50;21.30;;;;;;;;;;2060760;28;20242;-51
2021/06/30 00:52:00;;;;;;;32.58;21.88;;;;;;;;;;2061940;28;20553;-55
2021/06/30 00:53:00;;;;;;;34.30;23.17;;;;;;;;;;2064124;28;20681;-53
2021/06/30 00:54:01;;;;;;;36.17;22.77;;;;;;;;;;2060037;28;20186;-52
2021/06/30 00:55:01;;;;;;;38.03;23.80;;;;;;;;;;2065817;28;20576;-53
2021/06/30 00:56:02;;;;;;;33.70;21.92;;;;;;;;;;2070818;28;20173;-55
2021/06/30 00:57:02;;;;;;;36.10;24.02;;;;;;;;;;2067909;28;20182;-56
2021/06/30 00:58:02;;;;;;;34.20;22.52;;;;;;;;;;2061372;28;20675;-57
2021/06/30 00:59:03;;;;;;;33.28;22.08;;;;;;;;;;2063016;28;20177;-57
2021/06/30 01:00:04;;;;;;;36.63;23.65;;;;;;;;;;2063147;28;20198;-55
2021/06/30 01:01:04;;;;;;;38.30;23.55;;;;;;;;;;2062756;28;20177;-58
2021/06/30 01:02:05;;;;;;;38.20;22.35;;;;;;;;;;2073728;28;20181;-57
2021/06/30 01:03:05;;;;;;;32.47;22.73;;;;;;;;;;2064275;28;20328;-54
2021/06/30 01:04:05;;;;;;;33.78;22.17;;;;;;;;;;2059935;28;20227;-51
2021/06/30 01:05:06;;;;;;;33.17;22.15;;;;;;;;;;2064279;28;20180;-54
2021/06/30 01:06:06;;;;;;;34.47;22.05;;;;;;;;;;2064335;28;20183;-56
2021/06/30 01:07:06;;;;;;;31.38;21.90;;;;;;;;;;2068251;28;20178;-54
2021/06/30 01:08:07;;;;;;;34.35;21.58;;;;;;;;;;2061354;28;20231;-56
2021/06/30 01:09:07;;;;;;;34.83;22.83;;;;;;;;;;2064388;28;20534;-52
2021/06/30 01:10:08;;;;;;;38.50;22.88;;;;;;;;;;2065191;28;20177;-54
2021/06/30 01:11:09;;;;;;;35.08;22.65;;;;;;;;;;2061565;28;20645;-52
2021/06/30 01:12:09;;;;;;;35.80;22.38;;;;;;;;;;2064113;28;20567;-56
2021/06/30 01:13:09;;;;;;;33.33;21.38;;;;;;;;;;2073890;28;20258;-54
2021/06/30 01:14:10;;;;;;;33.33;21.67;;;;;;;;;;2070209;28;20165;-54
2021/06/30 01:15:12;;;;;;;34.95;20.15;;;;;;;;;;2068193;28;20207;-54
2021/06/30 01:16:13;;;;;;;32.60;20.75;;;;;;;;;;2072132;28;20162;-56
2021/06/30 01:17:14;;;;;;;28.45;19.60;;;;;;;;;;2071841;28;20200;-57
2021/06/30 01:18:14;;;;;;;29.40;20.45;;;;;;;;;;2070662;28;20634;-55
2021/06/30 01:19:17;;;;;;;31.92;20.35;;;;;;;;;;2068099;28;20177;-54
2021/06/30 01:20:18;;;;;;;28.48;20.33;;;;;;;;;;2069667;28;20671;-57
2021/06/30 01:21:18;;;;;;;33.10;21.35;;;;;;;;;;2070919;28;20172;-57
2021/06/30 01:22:19;;;;;;;27.40;18.50;;;;;;;;;;2066248;28;20180;-55
2021/06/30 01:23:19;;;;;;;27.92;19.27;;;;;;;;;;2070867;28;20165;-57
2021/06/30 01:24:20;;;;;;;30.98;19.45;;;;;;;;;;2068857;28;20174;-55
2021/06/30 01:25:20;;;;;;;26.42;17.88;;;;;;;;;;2070031;28;20211;-52
2021/06/30 01:26:20;;;;;;;28.38;17.58;;;;;;;;;;2063913;28;20225;-55
2021/06/30 01:27:21;;;;;;;25.02;17.65;;;;;;;;;;2067742;28;20577;-57
2021/06/30 01:28:21;;;;;;;25.80;18.00;;;;;;;;;;2068129;28;20874;-57
2021/06/30 01:29:22;;;;;;;22.92;16.45;;;;;;;;;;2065630;28;20585;-58
2021/06/30 01:30:22;;;;;;;25.88;17.08;;;;;;;;;;2066402;28;20169;-56
2021/06/30 01:31:22;;;;;;;25.17;17.00;;;;;;;;;;2069854;28;20168;-54
2021/06/30 01:32:23;;;;;;;25.30;17.27;;;;;;;;;;2066340;28;20185;-56
2021/06/30 01:33:24;;;;;;;24.35;17.63;;;;;;;;;;2068224;28;20200;-54
2021/06/30 01:34:24;;;;;;;26.15;17.38;;;;;;;;;;2066105;28;21028;-54
2021/06/30 01:35:25;;;;;;;24.52;17.15;;;;;;;;;;2066888;28;20223;-54
2021/06/30 01:36:25;;;;;;;25.23;16.27;;;;;;;;;;2059853;28;20198;-56
2021/06/30 01:37:25;;;;;;;25.25;17.05;;;;;;;;;;2062353;28;20205;-56
2021/06/30 01:38:27;;;;;;;26.73;16.95;;;;;;;;;;2070861;28;20180;-56
2021/06/30 01:39:27;;;;;;;24.73;17.35;;;;;;;;;;2067849;28;20184;-58
2021/06/30 01:40:27;;;;;;;24.48;17.27;;;;;;;;;;2069328;28;20165;-57
2021/06/30 01:41:28;;;;;;;24.55;17.65;;;;;;;;;;2065804;28;20220;-56
2021/06/30 01:42:28;;;;;;;29.38;18.17;;;;;;;;;;2070532;28;20169;-55
2021/06/30 01:43:28;;;;;;;26.65;17.58;;;;;;;;;;2067114;28;20240;-58
2021/06/30 01:44:29;;;;;;;24.50;17.52;;;;;;;;;;2067994;28;20174;-56
2021/06/30 01:45:29;;;;;;;28.67;18.73;;;;;;;;;;2060781;28;20182;-57
2021/06/30 01:46:30;;;;;;;27.92;19.25;;;;;;;;;;2069787;28;20564;-56
2021/06/30 01:47:30;;;;;;;31.20;19.63;;;;;;;;;;2066934;28;20174;-55
2021/06/30 01:48:30;;;;;;;27.05;18.70;;;;;;;;;;2071898;28;20657;-57
2021/06/30 01:49:30;;;;;;;27.88;19.17;;;;;;;;;;2063699;28;20665;-54
2021/06/30 01:50:31;;;;;;;29.35;20.15;;;;;;;;;;2071745;28;20251;-51
2021/06/30 01:51:31;;;;;;;28.77;20.35;;;;;;;;;;2066393;28;20173;-54
2021/06/30 01:52:32;;;;;;;32.15;20.27;;;;;;;;;;2071896;28;20177;-56
2021/06/30 01:53:32;;;;;;;30.95;19.98;;;;;;;;;;2059780;28;20561;-54
2021/06/30 01:54:32;;;;;;;32.10;20.67;;;;;;;;;;2057286;28;20218;-54
2021/06/30 01:55:34;;;;;;;33.03;20.92;;;;;;;;;;2071033;28;20177;-52
2021/06/30 01:56:35;;;;;;;32.60;21.08;;;;;;;;;;2065802;28;20276;-56
2021/06/30 01:57:42;;;;;;;37.08;20.92;;;;;;;;;;2054501;28;20316;-53
2021/06/30 01:58:43;;;;;;;28.40;20.35;;;;;;;;;;2057776;28;20187;-57
2021/06/30 01:59:44;;;;;;;30.95;20.67;;;;;;;;;;2069432;28;20257;-55
2021/06/30 02:00:44;;;;;;;27.00;19.23;;;;;;;;;;2074088;28;20173;-57
2021/06/30 02:01:44;;;;;;;26.52;18.50;;;;;;;;;;2070402;28;20185;-57
2021/06/30 02:02:46;;;;;;;29.38;19.40;;;;;;;;;;2060068;28;20181;-56
2021/06/30 02:03:46;;;;;;;25.67;18.15;;;;;;;;;;2073794;28;20177;-57
2021/06/30 02:04:58;;;;;;;28.48;16.88;;;;;;;;;;2065321;28;20244;-53
2021/06/30 02:05:58;;;;;;;28.92;18.58;;;;;;;;;;2066262;28;20337;-56
2021/06/30 02:06:58;;;;;;;32.13;18.77;;;;;;;;;;2072028;28;20220;-57
2021/06/30 02:07:59;;;;;;;25.48;17.30;;;;;;;;;;2067422;28;20221;-58
2021/06/30 02:09:00;;;;;;;27.08;18.67;;;;;;;;;;2067007;28;20196;-57
2021/06/30 02:10:00;;;;;;;27.15;18.38;;;;;;;;;;2068438;28;20184;-55
2021/06/30 02:11:00;;;;;;;29.75;17.83;;;;;;;;;;2070006;28;20192;-53
2021/06/30 02:12:01;;;;;;;27.02;17.50;;;;;;;;;;2062146;28;20182;-55
2021/06/30 02:13:01;;;;;;;25.63;17.60;;;;;;;;;;2070793;28;20252;-58
2021/06/30 02:14:02;;;;;;;27.95;18.83;;;;;;;;;;2065510;28;20535;-57
2021/06/30 02:15:07;;;;;;;27.38;18.02;;;;;;;;;;2066296;28;20200;-52
2021/06/30 02:16:08;;;;;;;28.10;18.13;;;;;;;;;;2069929;28;20261;-54
2021/06/30 02:17:08;;;;;;;25.27;16.50;;;;;;;;;;2068629;28;20177;-54
2021/06/30 02:18:09;;;;;;;24.15;17.10;;;;;;;;;;2074412;28;20169;-52
2021/06/30 02:19:11;;;;;;;23.92;16.80;;;;;;;;;;2068880;28;20264;-54
2021/06/30 02:20:12;;;;;;;26.27;15.65;;;;;;;;;;2067441;28;20176;-52
2021/06/30 02:21:12;;;;;;;23.92;17.23;;;;;;;;;;2069541;28;20196;-54
2021/06/30 02:22:12;;;;;;;24.90;16.33;;;;;;;;;;2069081;28;20567;-57
2021/06/30 02:23:12;;;;;;;26.85;17.10;;;;;;;;;;2073271;28;20200;-55
2021/06/30 02:24:13;;;;;;;26.55;16.98;;;;;;;;;;2073311;28;20187;-54
2021/06/30 02:25:33;;;;;;;25.17;16.75;;;;;;;;;;2065071;28;20165;-56
2021/06/30 02:26:34;;;;;;;25.20;15.57;;;;;;;;;;2076871;23;21520;-56
2021/06/30 02:27:34;;;;;;;25.25;16.10;;;;;;;;;;2066326;28;20209;-58
2021/06/30 02:28:34;;;;;;;24.05;16.98;;;;;;;;;;2064280;28;20224;-58
2021/06/30 02:29:35;;;;;;;26.20;16.75;;;;;;;;;;2062680;28;20251;-57
2021/06/30 02:30:35;;;;;;;23.67;15.80;;;;;;;;;;2058496;28;20280;-56
2021/06/30 02:31:35;;;;;;;22.25;15.75;;;;;;;;;;2059190;28;20230;-59
2021/06/30 02:32:36;;;;;;;22.67;15.57;;;;;;;;;;2071269;28;20278;-58
2021/06/30 02:33:36;;;;;;;21.40;14.52;;;;;;;;;;2073692;28;20200;-60
2021/06/30 02:34:36;;;;;;;22.17;15.52;;;;;;;;;;2073125;28;20267;-56
2021/06/30 02:35:37;;;;;;;17.10;14.15;;;;;;;;;;2066381;28;20174;-59
2021/06/30 02:36:37;;;;;;;21.58;13.88;;;;;;;;;;2062547;28;20227;-59
2021/06/30 02:37:37;;;;;;;20.38;14.60;;;;;;;;;;2073534;28;20212;-59
2021/06/30 02:38:38;;;;;;;21.02;14.15;;;;;;;;;;2075539;28;20252;-59
2021/06/30 02:39:38;;;;;;;19.80;13.20;;;;;;;;;;2068612;28;20745;-59
2021/06/30 02:40:39;;;;;;;18.77;13.18;;;;;;;;;;2072897;28;20207;-60
2021/06/30 02:41:40;;;;;;;16.45;12.90;;;;;;;;;;2073270;28;20173;-59
2021/06/30 02:42:40;;;;;;;16.90;12.98;;;;;;;;;;2064763;28;20328;-59
2021/06/30 02:43:41;;;;;;;19.35;13.93;;;;;;;;;;2070431;28;20184;-59
2021/06/30 02:44:42;;;;;;;18.65;13.10;;;;;;;;;;2068431;28;20189;-59
2021/06/30 02:45:42;;;;;;;19.65;14.25;;;;;;;;;;2073249;28;20554;-59
2021/06/30 02:46:42;;;;;;;21.08;13.93;;;;;;;;;;2065592;28;20197;-59
2021/06/30 02:47:43;;;;;;;18.25;13.65;;;;;;;;;;2065448;28;20209;-59
2021/06/30 02:48:43;;;;;;;19.60;13.05;;;;;;;;;;2065660;28;20165;-60
2021/06/30 02:49:44;;;;;;;18.05;13.48;;;;;;;;;;2060890;28;20177;-59
2021/06/30 02:50:44;;;;;;;19.77;13.73;;;;;;;;;;2059954;28;20171;-57
2021/06/30 02:51:45;;;;;;;15.13;11.48;;;;;;;;;;2073101;28;20173;-60
2021/06/30 02:52:46;;;;;;;17.35;13.13;;;;;;;;;;2062544;28;20186;-60
2021/06/30 02:53:46;;;;;;;17.25;12.70;;;;;;;;;;2057524;28;20178;-56
2021/06/30 02:54:46;;;;;;;16.58;12.60;;;;;;;;;;2067174;28;20176;-56
2021/06/30 02:55:47;;;;;;;17.25;12.77;;;;;;;;;;2072141;28;20661;-59
2021/06/30 02:56:47;;;;;;;18.15;12.80;;;;;;;;;;2064108;28;20194;-59
2021/06/30 02:57:48;;;;;;;19.25;12.93;;;;;;;;;;2071883;28;20177;-59
2021/06/30 02:58:48;;;;;;;16.30;12.38;;;;;;;;;;2065020;28;20186;-59
2021/06/30 02:59:49;;;;;;;16.63;13.13;;;;;;;;;;2061713;28;20177;-59
2021/06/30 03:00:49;;;;;;;19.05;13.65;;;;;;;;;;2058096;28;20193;-60
2021/06/30 03:01:49;;;;;;;19.65;14.18;;;;;;;;;;2062857;28;20173;-59
2021/06/30 03:02:50;;;;;;;18.70;14.52;;;;;;;;;;2063365;28;20182;-59
2021/06/30 03:03:50;;;;;;;18.08;12.95;;;;;;;;;;2060104;28;20185;-60
2021/06/30 03:04:50;;;;;;;21.55;14.40;;;;;;;;;;2067349;28;20232;-59
2021/06/30 03:05:51;;;;;;;17.75;13.18;;;;;;;;;;2069561;28;20828;-59
2021/06/30 03:06:51;;;;;;;19.52;13.40;;;;;;;;;;2062532;28;20205;-59
2021/06/30 03:07:51;;;;;;;20.42;14.25;;;;;;;;;;2056668;28;20237;-59
2021/06/30 03:08:52;;;;;;;17.95;13.45;;;;;;;;;;2057046;28;20539;-60
2021/06/30 03:09:52;;;;;;;19.40;13.88;;;;;;;;;;2061751;28;20161;-59
2021/06/30 03:10:52;;;;;;;21.25;14.23;;;;;;;;;;2066054;28;20268;-59
2021/06/30 03:11:53;;;;;;;18.70;14.52;;;;;;;;;;2065108;28;20272;-60
2021/06/30 03:12:53;;;;;;;20.77;14.82;;;;;;;;;;2071511;28;20615;-57
2021/06/30 03:13:53;;;;;;;20.52;15.02;;;;;;;;;;2059815;28;20185;-60
2021/06/30 03:14:53;;;;;;;27.75;14.40;;;;;;;;;;2068042;28;20174;-59
2021/06/30 03:15:54;;;;;;;24.33;14.30;;;;;;;;;;2071571;28;20181;-59
2021/06/30 03:16:54;;;;;;;19.77;14.45;;;;;;;;;;2065939;28;20193;-58
2021/06/30 03:17:54;;;;;;;23.83;14.65;;;;;;;;;;2071327;28;20169;-56
2021/06/30 03:18:54;;;;;;;19.65;14.65;;;;;;;;;;2059416;28;20550;-60
2021/06/30 03:19:55;;;;;;;17.45;13.52;;;;;;;;;;2062350;28;20561;-57
2021/06/30 03:20:55;;;;;;;19.30;13.10;;;;;;;;;;2059558;28;20178;-57
2021/06/30 03:21:55;;;;;;;18.98;12.63;;;;;;;;;;2071205;28;20228;-59
2021/06/30 03:22:55;;;;;;;22.38;13.85;;;;;;;;;;2068107;28;20166;-58
2021/06/30 03:23:56;;;;;;;16.85;12.30;;;;;;;;;;2071580;28;20275;-58
2021/06/30 03:24:56;;;;;;;15.57;12.73;;;;;;;;;;2064281;28;20219;-59
2021/06/30 03:25:56;;;;;;;16.50;12.10;;;;;;;;;;2065656;28;20204;-58
2021/06/30 03:26:57;;;;;;;15.40;12.20;;;;;;;;;;2070909;28;20307;-56
2021/06/30 03:27:57;;;;;;;16.23;11.88;;;;;;;;;;2065690;28;20209;-59
2021/06/30 03:29:00;;;;;;;16.27;12.02;;;;;;;;;;2067827;28;20491;-58
2021/06/30 03:30:00;;;;;;;16.98;12.50;;;;;;;;;;2067749;28;20277;-59
2021/06/30 03:31:01;;;;;;;18.40;11.90;;;;;;;;;;2064393;28;20189;-59
2021/06/30 03:32:01;;;;;;;18.15;12.50;;;;;;;;;;2070263;28;20263;-59
2021/06/30 03:33:02;;;;;;;16.33;11.38;;;;;;;;;;2066219;28;20177;-59
2021/06/30 03:34:02;;;;;;;18.40;12.07;;;;;;;;;;2070478;28;20196;-58
2021/06/30 03:35:03;;;;;;;15.82;11.90;;;;;;;;;;2063015;28;20186;-58
2021/06/30 03:36:04;;;;;;;16.23;13.05;;;;;;;;;;2067388;28;20169;-58
2021/06/30 03:37:04;;;;;;;15.90;12.05;;;;;;;;;;2061745;28;20224;-59
2021/06/30 03:38:05;;;;;;;17.60;12.00;;;;;;;;;;2063935;28;20191;-61
2021/06/30 03:39:05;;;;;;;15.32;12.18;;;;;;;;;;2069467;28;20174;-59
2021/06/30 03:40:05;;;;;;;15.38;11.18;;;;;;;;;;2069111;28;20200;-60
2021/06/30 03:41:06;;;;;;;16.48;11.40;;;;;;;;;;2074678;28;20175;-56
2021/06/30 03:42:06;;;;;;;15.45;10.80;;;;;;;;;;2066296;28;20173;-59
2021/06/30 03:43:06;;;;;;;14.15;10.32;;;;;;;;;;2068228;28;20188;-59
2021/06/30 03:44:06;;;;;;;13.63;11.00;;;;;;;;;;2069469;28;20197;-60
2021/06/30 03:45:07;;;;;;;14.63;10.65;;;;;;;;;;2063662;28;20555;-60
2021/06/30 03:46:08;;;;;;;14.65;10.70;;;;;;;;;;2065573;28;20666;-59
2021/06/30 03:47:09;;;;;;;14.48;10.95;;;;;;;;;;2066469;28;20543;-59
2021/06/30 03:48:09;;;;;;;13.82;10.85;;;;;;;;;;2063206;28;20772;-60
2021/06/30 03:49:09;;;;;;;14.10;10.30;;;;;;;;;;2069644;28;20249;-59
2021/06/30 03:50:09;;;;;;;12.73;10.07;;;;;;;;;;2063794;28;20544;-59
2021/06/30 03:51:10;;;;;;;15.18;9.50;;;;;;;;;;2067939;28;20937;-58
2021/06/30 03:52:10;;;;;;;12.75;10.07;;;;;;;;;;2070214;28;20173;-60
2021/06/30 03:53:10;;;;;;;13.98;10.57;;;;;;;;;;2067790;28;20170;-59
2021/06/30 03:54:10;;;;;;;16.35;10.57;;;;;;;;;;2064015;28;20533;-59
2021/06/30 03:55:11;;;;;;;14.45;10.95;;;;;;;;;;2069467;28;20177;-58
2021/06/30 03:56:11;;;;;;;16.40;10.93;;;;;;;;;;2068296;28;20180;-59
2021/06/30 03:57:11;;;;;;;15.73;10.70;;;;;;;;;;2066823;28;20180;-58
2021/06/30 03:58:12;;;;;;;16.88;10.48;;;;;;;;;;2069500;28;20207;-60
2021/06/30 03:59:12;;;;;;;15.07;10.80;;;;;;;;;;2071038;28;20172;-59
2021/06/30 04:00:12;;;;;;;14.85;11.60;;;;;;;;;;2068327;28;20260;-60
2021/06/30 04:01:12;;;;;;;16.25;10.65;;;;;;;;;;2068641;28;20294;-59
2021/06/30 04:02:13;;;;;;;15.20;10.70;;;;;;;;;;2068555;28;20711;-58
2021/06/30 04:03:13;;;;;;;19.17;12.88;;;;;;;;;;2068528;28;20641;-61
2021/06/30 04:04:14;;;;;;;15.85;11.15;;;;;;;;;;2067256;28;20543;-56
2021/06/30 04:05:15;;;;;;;16.83;10.70;;;;;;;;;;2068905;28;20202;-59
2021/06/30 04:06:15;;;;;;;13.15;9.88;;;;;;;;;;2067962;28;20263;-56
2021/06/30 04:07:15;;;;;;;12.45;9.95;;;;;;;;;;2059854;28;20185;-53
2021/06/30 04:08:15;;;;;;;14.13;10.32;;;;;;;;;;2060072;28;20186;-58
2021/06/30 04:09:16;;;;;;;13.55;10.20;;;;;;;;;;2061290;28;20253;-56
2021/06/30 04:10:16;;;;;;;11.20;9.50;;;;;;;;;;2062809;28;20172;-56
2021/06/30 04:11:17;;;;;;;13.98;10.32;;;;;;;;;;2065555;28;20173;-58
2021/06/30 04:12:17;;;;;;;13.85;10.00;;;;;;;;;;2065702;28;20162;-55
2021/06/30 04:13:17;;;;;;;12.85;10.13;;;;;;;;;;2064518;28;20633;-58
2021/06/30 04:14:17;;;;;;;14.63;10.23;;;;;;;;;;2069561;28;20726;-59
2021/06/30 04:15:18;;;;;;;13.80;9.50;;;;;;;;;;2068337;28;20637;-57
2021/06/30 04:16:18;;;;;;;11.52;10.05;;;;;;;;;;2064742;28;20166;-59
2021/06/30 04:17:18;;;;;;;11.40;9.63;;;;;;;;;;2066710;28;20168;-56
2021/06/30 04:18:18;;;;;;;13.90;10.38;;;;;;;;;;2065313;28;20205;-55
2021/06/30 04:19:19;;;;;;;12.15;9.40;;;;;;;;;;2068893;28;20236;-59
2021/06/30 04:20:19;;;;;;;12.85;9.95;;;;;;;;;;2068131;28;20165;-58
2021/06/30 04:21:19;;;;;;;13.18;9.32;;;;;;;;;;2064089;28;20165;-65
2021/06/30 04:22:19;;;;;;;13.85;10.15;;;;;;;;;;2069471;28;20177;-59
2021/06/30 04:23:20;;;;;;;13.18;9.50;;;;;;;;;;2067665;28;20173;-57
2021/06/30 04:24:20;;;;;;;13.30;9.35;;;;;;;;;;2069456;28;20173;-58
2021/06/30 04:25:20;;;;;;;11.60;9.13;;;;;;;;;;2067611;28;20530;-59
2021/06/30 04:26:21;;;;;;;12.32;9.35;;;;;;;;;;2069584;28;20176;-58
2021/06/30 04:27:21;;;;;;;13.23;9.25;;;;;;;;;;2068983;28;20174;-58
2021/06/30 04:28:21;;;;;;;14.00;9.32;;;;;;;;;;2058869;28;20236;-58
2021/06/30 04:29:21;;;;;;;10.52;8.38;;;;;;;;;;2067152;28;20704;-58
2021/06/30 04:30:22;;;;;;;12.20;9.07;;;;;;;;;;2067949;28;20177;-55
2021/06/30 04:31:22;;;;;;;9.77;8.82;;;;;;;;;;2057412;28;20195;-59
2021/06/30 04:32:22;;;;;;;9.63;8.63;;;;;;;;;;2067364;28;20177;-56
2021/06/30 04:33:22;;;;;;;12.65;9.75;;;;;;;;;;2067833;28;20177;-58
2021/06/30 04:34:23;;;;;;;13.35;9.90;;;;;;;;;;2067465;28;20217;-58
2021/06/30 04:35:23;;;;;;;10.82;8.95;;;;;;;;;;2067180;28;20252;-58
2021/06/30 04:36:23;;;;;;;10.32;8.30;;;;;;;;;;2066750;28;20166;-58
2021/06/30 04:37:24;;;;;;;10.63;8.35;;;;;;;;;;2060666;28;20707;-57
2021/06/30 04:38:25;;;;;;;10.27;8.63;;;;;;;;;;2050959;28;20196;-57
2021/06/30 04:39:27;;;;;;;9.88;8.82;;;;;;;;;;2049859;28;20183;-58
2021/06/30 04:40:28;;;;;;;9.30;7.90;;;;;;;;;;2066130;28;20821;-49
2021/06/30 04:41:28;;;;;;;12.35;9.10;;;;;;;;;;2070070;28;20223;-53
2021/06/30 04:42:28;;;;;;;11.32;8.73;;;;;;;;;;2063806;28;20678;-52
2021/06/30 04:43:29;;;;;;;11.77;8.98;;;;;;;;;;2063339;28;20201;-54
2021/06/30 04:44:29;;;;;;;12.60;9.18;;;;;;;;;;2064261;28;20186;-52
2021/06/30 04:45:29;;;;;;;9.55;8.40;;;;;;;;;;2067094;28;20172;-56
2021/06/30 04:46:29;;;;;;;11.38;7.68;;;;;;;;;;2064178;28;20293;-56
2021/06/30 04:47:30;;;;;;;9.85;7.93;;;;;;;;;;2070417;28;20216;-58
2021/06/30 04:48:30;;;;;;;8.95;8.07;;;;;;;;;;2064693;28;20190;-57
2021/06/30 04:49:31;;;;;;;8.63;7.70;;;;;;;;;;2061080;28;20181;-54
2021/06/30 04:50:31;;;;;;;9.70;7.85;;;;;;;;;;2061953;28;20175;-57
2021/06/30 04:51:31;;;;;;;9.80;7.93;;;;;;;;;;2068781;28;20673;-56
2021/06/30 04:52:32;;;;;;;9.43;8.40;;;;;;;;;;2065763;28;20174;-59
2021/06/30 04:53:32;;;;;;;9.15;7.05;;;;;;;;;;2064247;28;20209;-55
2021/06/30 04:54:33;;;;;;;9.70;8.32;;;;;;;;;;2070305;28;20589;-54
2021/06/30 04:55:33;;;;;;;11.57;8.32;;;;;;;;;;2060117;28;20241;-55
2021/06/30 04:56:39;;;;;;;7.97;6.53;;;;;;;;;;2061953;28;20190;-58
2021/06/30 04:57:40;;;;;;;10.45;7.85;;;;;;;;;;2063162;28;20182;-51
2021/06/30 04:58:40;;;;;;;10.07;7.57;;;;;;;;;;2070467;28;20680;-50
2021/06/30 04:59:40;;;;;;;10.98;7.60;;;;;;;;;;2064045;28;20174;-56
2021/06/30 05:00:41;;;;;;;11.02;8.27;;;;;;;;;;2064597;28;20194;-58
2021/06/30 05:01:41;;;;;;;8.48;7.68;;;;;;;;;;2070913;28;20200;-57
2021/06/30 05:02:41;;;;;;;10.00;7.97;;;;;;;;;;2072657;28;20184;-56
2021/06/30 05:03:41;;;;;;;8.93;7.70;;;;;;;;;;2065242;28;20670;-54
2021/06/30 05:04:42;;;;;;;8.80;7.90;;;;;;;;;;2070553;28;20280;-57
2021/06/30 05:05:42;;;;;;;10.30;8.23;;;;;;;;;;2080060;28;20184;-58
2021/06/30 05:06:42;;;;;;;9.25;7.22;;;;;;;;;;2072295;28;20197;-56
2021/06/30 05:07:42;;;;;;;10.95;7.63;;;;;;;;;;2071576;28;20215;-56
2021/06/30 05:08:43;;;;;;;8.93;7.43;;;;;;;;;;2065021;28;20650;-52
2021/06/30 05:09:43;;;;;;;10.50;8.18;;;;;;;;;;2065997;28;20252;-56
2021/06/30 05:10:44;;;;;;;11.35;7.90;;;;;;;;;;2066208;28;20542;-58
2021/06/30 05:11:44;;;;;;;8.50;7.65;;;;;;;;;;2064453;28;20182;-54
2021/06/30 05:12:44;;;;;;;8.57;7.70;;;;;;;;;;2063289;28;20177;-54
2021/06/30 05:13:44;;;;;;;9.10;7.88;;;;;;;;;;2064484;28;20329;-58
2021/06/30 05:14:45;;;;;;;8.38;7.03;;;;;;;;;;2050098;28;20207;-54
2021/06/30 05:15:45;;;;;;;11.57;8.02;;;;;;;;;;2071946;28;20624;-53
2021/06/30 05:16:45;;;;;;;8.95;7.72;;;;;;;;;;2061529;28;20614;-50
2021/06/30 05:17:45;;;;;;;10.30;7.90;;;;;;;;;;2061848;28;20265;-58
2021/06/30 05:18:46;;;;;;;9.38;7.82;;;;;;;;;;2064765;28;20181;-56
2021/06/30 05:19:46;;;;;;;9.88;6.95;;;;;;;;;;2064358;28;20181;-56
2021/06/30 05:20:47;;;;;;;9.48;7.70;;;;;;;;;;2066742;28;20221;-55
2021/06/30 05:21:47;;;;;;;9.18;8.23;;;;;;;;;;2068243;28;20241;-55
2021/06/30 05:22:47;;;;;;;8.40;7.50;;;;;;;;;;2073609;28;20177;-56
2021/06/30 05:23:48;;;;;;;8.65;7.43;;;;;;;;;;2067430;28;20179;-54
2021/06/30 05:24:48;;;;;;;11.57;7.78;;;;;;;;;;2062873;28;20187;-51
2021/06/30 05:25:48;;;;;;;9.57;6.88;;;;;;;;;;2062654;28;20210;-54
2021/06/30 05:26:50;;;;;;;7.90;7.10;;;;;;;;;;2065043;28;20235;-54
2021/06/30 05:27:50;;;;;;;8.75;7.32;;;;;;;;;;2064013;28;20202;-54
2021/06/30 05:28:50;;;;;;;9.18;7.10;;;;;;;;;;2064354;28;20185;-51
2021/06/30 05:29:50;;;;;;;7.90;6.88;;;;;;;;;;2062508;28;20188;-52
2021/06/30 05:30:50;;;;;;;9.38;7.03;;;;;;;;;;2064913;28;20172;-54
2021/06/30 05:31:51;;;;;;;10.35;6.82;;;;;;;;;;2066173;28;20177;-53
2021/06/30 05:32:51;;;;;;;8.30;7.50;;;;;;;;;;2064358;28;20177;-53
2021/06/30 05:33:51;;;;;;;9.82;7.68;;;;;;;;;;2063561;28;20185;-53
2021/06/30 05:34:51;;;;;;;8.68;6.95;;;;;;;;;;2064429;28;20162;-52
2021/06/30 05:35:52;;;;;;;8.88;7.25;;;;;;;;;;2063299;28;20237;-53
2021/06/30 05:36:52;;;;;;;8.55;7.38;;;;;;;;;;2066899;28;20181;-52
2021/06/30 05:37:52;;;;;;;8.65;7.75;;;;;;;;;;2065374;28;20181;-49
2021/06/30 05:38:52;;;;;;;8.50;7.43;;;;;;;;;;2064411;28;20189;-51
2021/06/30 05:39:53;;;;;;;9.70;7.70;;;;;;;;;;2067266;28;20189;-48
2021/06/30 05:40:53;;;;;;;9.68;8.15;;;;;;;;;;2072511;28;20177;-57
2021/06/30 05:41:53;;;;;;;10.00;8.18;;;;;;;;;;2065519;28;20204;-57
2021/06/30 05:42:55;;;;;;;11.65;8.30;;;;;;;;;;2060745;28;20175;-56
2021/06/30 05:43:55;;;;;;;10.90;8.35;;;;;;;;;;2057450;28;20361;-56
2021/06/30 05:44:55;;;;;;;11.30;8.10;;;;;;;;;;2064558;28;20224;-56
2021/06/30 05:45:56;;;;;;;10.18;8.15;;;;;;;;;;2062652;28;20182;-56
2021/06/30 05:46:56;;;;;;;14.18;8.40;;;;;;;;;;2058320;28;20195;-53
2021/06/30 05:47:56;;;;;;;11.77;9.10;;;;;;;;;;2066431;28;20208;-52
2021/06/30 05:48:56;;;;;;;11.00;8.20;;;;;;;;;;2060527;28;20225;-53
2021/06/30 05:49:57;;;;;;;11.55;8.57;;;;;;;;;;2060615;28;20170;-56
2021/06/30 05:50:57;;;;;;;10.15;8.50;;;;;;;;;;2061051;28;20179;-54
2021/06/30 05:51:57;;;;;;;9.52;8.15;;;;;;;;;;2066417;28;20170;-54
2021/06/30 05:52:57;;;;;;;11.45;8.20;;;;;;;;;;2059563;28;20245;-56
2021/06/30 05:53:58;;;;;;;11.55;8.88;;;;;;;;;;2065802;28;20185;-49
2021/06/30 05:54:58;;;;;;;11.55;8.73;;;;;;;;;;2064817;28;20600;-53